sensor_id;sensor_type;location;lat;lon;timestamp;pressure;altitude;pressure_sealevel;temperature;humidity
9189;BME280;34313;50.780;6.084;2023-03-20T00:00:08;99893.41;;;8.99;96.44
9189;BME280;34313;50.780;6.084;2023-03-20T00:02:39;99893.28;;;9.02;95.99
9189;BME280;34313;50.780;6.084;2023-03-20T00:05:14;99891.59;;;9.01;95.81
9189;BME280;34313;50.780;6.084;2023-03-20T00:07:40;99892.72;;;8.96;95.44
9189;BME280;34313;50.780;6.084;2023-03-20T00:10:06;99902.50;;;8.92;96.07
9189;BME280;34313;50.780;6.084;2023-03-20T00:12:32;99898.97;;;8.93;96.44
9189;BME280;34313;50.780;6.084;2023-03-20T00:14:59;99904.09;;;8.96;96.48
9189;BME280;34313;50.780;6.084;2023-03-20T00:17:26;99906.66;;;8.98;96.18
9189;BME280;34313;50.780;6.084;2023-03-20T00:19:52;99908.34;;;8.99;95.75
9189;BME280;34313;50.780;6.084;2023-03-20T00:22:17;99910.84;;;9.02;96.32
9189;BME280;34313;50.780;6.084;2023-03-20T00:24:42;99916.31;;;8.97;96.34
9189;BME280;34313;50.780;6.084;2023-03-20T00:27:11;99914.63;;;8.96;96.53
9189;BME280;34313;50.780;6.084;2023-03-20T00:29:37;99919.09;;;8.94;96.51
9189;BME280;34313;50.780;6.084;2023-03-20T00:32:04;99929.50;;;8.96;96.33
9189;BME280;34313;50.780;6.084;2023-03-20T00:34:33;99920.00;;;8.93;96.37
9189;BME280;34313;50.780;6.084;2023-03-20T00:36:59;99926.75;;;8.99;95.79
9189;BME280;34313;50.780;6.084;2023-03-20T00:39:24;99927.88;;;8.93;96.73
9189;BME280;34313;50.780;6.084;2023-03-20T00:41:52;99926.97;;;8.94;96.81
9189;BME280;34313;50.780;6.084;2023-03-20T00:44:31;99933.94;;;8.95;97.17
9189;BME280;34313;50.780;6.084;2023-03-20T00:47:20;99939.19;;;8.95;96.90
9189;BME280;34313;50.780;6.084;2023-03-20T00:49:47;99933.22;;;8.92;97.29
9189;BME280;34313;50.780;6.084;2023-03-20T00:52:16;99930.78;;;8.87;97.65
9189;BME280;34313;50.780;6.084;2023-03-20T00:54:41;99923.25;;;8.79;97.95
9189;BME280;34313;50.780;6.084;2023-03-20T00:57:13;99934.41;;;8.84;97.75
9189;BME280;34313;50.780;6.084;2023-03-20T00:59:51;99920.03;;;8.73;97.67
9189;BME280;34313;50.780;6.084;2023-03-20T01:02:17;99927.84;;;8.74;97.85
9189;BME280;34313;50.780;6.084;2023-03-20T01:04:44;99924.81;;;8.83;97.76
9189;BME280;34313;50.780;6.084;2023-03-20T01:07:13;99918.81;;;8.80;98.03
9189;BME280;34313;50.780;6.084;2023-03-20T01:09:38;99909.19;;;8.80;97.53
9189;BME280;34313;50.780;6.084;2023-03-20T01:12:04;99912.84;;;8.76;97.51
9189;BME280;34313;50.780;6.084;2023-03-20T01:14:32;99911.00;;;8.78;96.24
9189;BME280;34313;50.780;6.084;2023-03-20T01:19:32;99886.75;;;8.73;95.65
9189;BME280;34313;50.780;6.084;2023-03-20T01:21:58;99871.50;;;8.61;95.95
9189;BME280;34313;50.780;6.084;2023-03-20T01:24:23;99883.91;;;8.57;96.82
9189;BME280;34313;50.780;6.084;2023-03-20T01:26:48;99875.03;;;8.39;97.56
9189;BME280;34313;50.780;6.084;2023-03-20T01:31:41;99874.69;;;8.06;99.67
9189;BME280;34313;50.780;6.084;2023-03-20T01:34:09;99850.13;;;7.86;100.00
9189;BME280;34313;50.780;6.084;2023-03-20T01:36:35;99852.03;;;7.83;100.00
9189;BME280;34313;50.780;6.084;2023-03-20T01:39:01;99865.84;;;7.66;100.00
9189;BME280;34313;50.780;6.084;2023-03-20T01:41:27;99874.34;;;7.50;100.00
9189;BME280;34313;50.780;6.084;2023-03-20T01:43:53;99869.81;;;7.32;100.00
9189;BME280;34313;50.780;6.084;2023-03-20T01:46:29;99867.81;;;7.15;100.00
9189;BME280;34313;50.780;6.084;2023-03-20T01:49:06;99871.09;;;6.98;100.00
9189;BME280;34313;50.780;6.084;2023-03-20T01:51:32;99874.34;;;6.81;100.00
9189;BME280;34313;50.780;6.084;2023-03-20T01:54:04;99867.97;;;6.65;100.00
9189;BME280;34313;50.780;6.084;2023-03-20T01:56:35;99871.81;;;6.54;100.00
9189;BME280;34313;50.780;6.084;2023-03-20T01:59:07;99886.25;;;6.41;100.00
9189;BME280;34313;50.780;6.084;2023-03-20T02:01:35;99891.16;;;6.25;100.00
9189;BME280;34313;50.780;6.084;2023-03-20T02:04:01;99907.75;;;6.24;100.00
9189;BME280;34313;50.780;6.084;2023-03-20T02:06:27;99892.97;;;6.23;100.00
9189;BME280;34313;50.780;6.084;2023-03-20T02:08:53;99870.22;;;6.25;100.00
9189;BME280;34313;50.780;6.084;2023-03-20T02:11:20;99866.06;;;6.19;100.00
9189;BME280;34313;50.780;6.084;2023-03-20T02:13:49;99865.97;;;6.22;100.00
9189;BME280;34313;50.780;6.084;2023-03-20T02:16:16;99887.50;;;6.29;100.00
9189;BME280;34313;50.780;6.084;2023-03-20T02:18:47;99883.84;;;6.35;100.00
9189;BME280;34313;50.780;6.084;2023-03-20T02:27:29;99878.31;;;6.19;100.00
9189;BME280;34313;50.780;6.084;2023-03-20T02:41:29;99881.63;;;5.97;100.00
9189;BME280;34313;50.780;6.084;2023-03-20T02:44:13;99882.31;;;6.02;100.00
9189;BME280;34313;50.780;6.084;2023-03-20T02:46:49;99873.75;;;5.97;100.00
9189;BME280;34313;50.780;6.084;2023-03-20T02:52:37;99870.53;;;5.89;100.00
9189;BME280;34313;50.780;6.084;2023-03-20T02:58:15;99838.84;;;5.72;100.00
9189;BME280;34313;50.780;6.084;2023-03-20T03:00:45;99840.94;;;5.60;100.00
9189;BME280;34313;50.780;6.084;2023-03-20T03:03:17;99850.91;;;5.49;100.00
9189;BME280;34313;50.780;6.084;2023-03-20T03:05:49;99863.31;;;5.42;100.00
9189;BME280;34313;50.780;6.084;2023-03-20T03:08:20;99868.75;;;5.35;100.00
9189;BME280;34313;50.780;6.084;2023-03-20T03:10:54;99891.22;;;5.42;100.00
9189;BME280;34313;50.780;6.084;2023-03-20T03:13:27;99889.50;;;5.41;100.00
9189;BME280;34313;50.780;6.084;2023-03-20T03:15:58;99895.69;;;5.38;100.00
9189;BME280;34313;50.780;6.084;2023-03-20T03:18:28;99903.44;;;5.40;100.00
9189;BME280;34313;50.780;6.084;2023-03-20T03:20:57;99904.72;;;5.56;100.00
9189;BME280;34313;50.780;6.084;2023-03-20T03:23:30;99902.22;;;5.52;100.00
9189;BME280;34313;50.780;6.084;2023-03-20T03:26:00;99920.47;;;5.53;100.00
9189;BME280;34313;50.780;6.084;2023-03-20T03:28:32;99915.31;;;5.52;100.00
9189;BME280;34313;50.780;6.084;2023-03-20T03:31:03;99922.06;;;5.59;100.00
9189;BME280;34313;50.780;6.084;2023-03-20T03:33:31;99915.97;;;5.58;100.00
9189;BME280;34313;50.780;6.084;2023-03-20T03:41:40;99906.59;;;5.79;100.00
9189;BME280;34313;50.780;6.084;2023-03-20T03:44:26;99893.50;;;5.79;100.00
9189;BME280;34313;50.780;6.084;2023-03-20T03:46:57;99881.50;;;5.74;100.00
9189;BME280;34313;50.780;6.084;2023-03-20T03:49:32;99890.63;;;5.87;100.00
9189;BME280;34313;50.780;6.084;2023-03-20T03:52:03;99890.63;;;5.87;100.00
9189;BME280;34313;50.780;6.084;2023-03-20T03:54:44;99887.97;;;5.88;100.00
9189;BME280;34313;50.780;6.084;2023-03-20T03:57:14;99885.56;;;5.82;100.00
9189;BME280;34313;50.780;6.084;2023-03-20T03:59:44;99893.38;;;5.84;100.00
9189;BME280;34313;50.780;6.084;2023-03-20T04:02:12;99897.53;;;5.90;100.00
9189;BME280;34313;50.780;6.084;2023-03-20T04:04:42;99900.97;;;5.92;100.00
9189;BME280;34313;50.780;6.084;2023-03-20T04:07:09;99895.72;;;5.92;100.00
9189;BME280;34313;50.780;6.084;2023-03-20T04:09:34;99892.41;;;5.86;100.00
9189;BME280;34313;50.780;6.084;2023-03-20T04:12:00;99879.41;;;5.83;100.00
9189;BME280;34313;50.780;6.084;2023-03-20T04:14:25;99877.59;;;5.85;100.00
9189;BME280;34313;50.780;6.084;2023-03-20T04:16:51;99869.88;;;5.82;100.00
9189;BME280;34313;50.780;6.084;2023-03-20T04:19:16;99860.72;;;5.69;100.00
9189;BME280;34313;50.780;6.084;2023-03-20T04:21:42;99866.19;;;5.61;100.00
9189;BME280;34313;50.780;6.084;2023-03-20T04:24:07;99866.28;;;5.58;100.00
9189;BME280;34313;50.780;6.084;2023-03-20T04:26:32;99855.16;;;5.52;100.00
9189;BME280;34313;50.780;6.084;2023-03-20T04:28:58;99862.56;;;5.39;100.00
9189;BME280;34313;50.780;6.084;2023-03-20T04:31:23;99873.13;;;5.34;100.00
9189;BME280;34313;50.780;6.084;2023-03-20T04:33:48;99875.03;;;5.29;100.00
9189;BME280;34313;50.780;6.084;2023-03-20T04:36:14;99881.03;;;5.33;100.00
9189;BME280;34313;50.780;6.084;2023-03-20T04:38:40;99892.41;;;5.32;100.00
9189;BME280;34313;50.780;6.084;2023-03-20T04:41:05;99884.81;;;5.22;100.00
9189;BME280;34313;50.780;6.084;2023-03-20T04:43:32;99887.06;;;5.35;100.00
9189;BME280;34313;50.780;6.084;2023-03-20T04:45:57;99885.13;;;5.41;100.00
9189;BME280;34313;50.780;6.084;2023-03-20T04:48:23;99888.34;;;5.49;100.00
9189;BME280;34313;50.780;6.084;2023-03-20T04:50:48;99878.03;;;5.45;100.00
9189;BME280;34313;50.780;6.084;2023-03-20T04:53:15;99881.19;;;5.56;100.00
9189;BME280;34313;50.780;6.084;2023-03-20T04:55:41;99866.56;;;5.51;100.00
9189;BME280;34313;50.780;6.084;2023-03-20T04:58:06;99881.63;;;5.69;100.00
9189;BME280;34313;50.780;6.084;2023-03-20T05:00:32;99870.56;;;5.61;100.00
9189;BME280;34313;50.780;6.084;2023-03-20T05:02:57;99876.44;;;5.67;100.00
9189;BME280;34313;50.780;6.084;2023-03-20T05:05:23;99879.78;;;5.73;100.00
9189;BME280;34313;50.780;6.084;2023-03-20T05:07:49;99866.91;;;5.66;100.00
9189;BME280;34313;50.780;6.084;2023-03-20T05:10:14;99858.84;;;5.73;100.00
9189;BME280;34313;50.780;6.084;2023-03-20T05:12:40;99877.91;;;5.76;100.00
9189;BME280;34313;50.780;6.084;2023-03-20T05:15:05;99871.88;;;5.74;100.00
9189;BME280;34313;50.780;6.084;2023-03-20T05:17:31;99880.38;;;5.81;100.00
9189;BME280;34313;50.780;6.084;2023-03-20T05:20:00;99882.25;;;5.77;100.00
9189;BME280;34313;50.780;6.084;2023-03-20T05:22:31;99836.72;;;5.56;100.00
9189;BME280;34313;50.780;6.084;2023-03-20T05:24:57;99864.84;;;5.76;100.00
9189;BME280;34313;50.780;6.084;2023-03-20T05:27:22;99863.91;;;5.79;100.00
9189;BME280;34313;50.780;6.084;2023-03-20T05:29:50;99872.22;;;5.90;100.00
9189;BME280;34313;50.780;6.084;2023-03-20T05:32:16;99868.81;;;5.88;100.00
9189;BME280;34313;50.780;6.084;2023-03-20T05:34:45;99841.19;;;5.79;100.00
9189;BME280;34313;50.780;6.084;2023-03-20T05:37:20;99834.19;;;5.80;100.00
9189;BME280;34313;50.780;6.084;2023-03-20T05:39:49;99819.44;;;5.79;100.00
9189;BME280;34313;50.780;6.084;2023-03-20T05:42:15;99866.19;;;6.15;100.00
9189;BME280;34313;50.780;6.084;2023-03-20T05:44:43;99832.91;;;5.93;100.00
9189;BME280;34313;50.780;6.084;2023-03-20T05:47:12;99844.03;;;6.00;100.00
9189;BME280;34313;50.780;6.084;2023-03-20T05:49:40;99832.16;;;5.90;100.00
9189;BME280;34313;50.780;6.084;2023-03-20T05:52:11;99865.56;;;6.08;100.00
9189;BME280;34313;50.780;6.084;2023-03-20T05:54:58;99871.47;;;6.13;100.00
9189;BME280;34313;50.780;6.084;2023-03-20T05:57:23;99877.66;;;6.12;100.00
9189;BME280;34313;50.780;6.084;2023-03-20T05:59:49;99863.50;;;6.18;100.00
9189;BME280;34313;50.780;6.084;2023-03-20T06:02:14;99872.47;;;6.11;100.00
9189;BME280;34313;50.780;6.084;2023-03-20T06:04:40;99875.59;;;6.20;100.00
9189;BME280;34313;50.780;6.084;2023-03-20T06:07:05;99867.56;;;6.27;100.00
9189;BME280;34313;50.780;6.084;2023-03-20T06:09:31;99852.13;;;6.19;100.00
9189;BME280;34313;50.780;6.084;2023-03-20T06:11:57;99848.91;;;6.36;100.00
9189;BME280;34313;50.780;6.084;2023-03-20T06:14:23;99860.72;;;6.48;100.00
9189;BME280;34313;50.780;6.084;2023-03-20T06:16:48;99868.06;;;6.61;100.00
9189;BME280;34313;50.780;6.084;2023-03-20T06:19:14;99859.97;;;6.68;100.00
9189;BME280;34313;50.780;6.084;2023-03-20T06:21:39;99872.56;;;6.81;100.00
9189;BME280;34313;50.780;6.084;2023-03-20T06:24:05;99868.44;;;6.99;100.00
9189;BME280;34313;50.780;6.084;2023-03-20T06:26:31;99837.16;;;6.95;100.00
9189;BME280;34313;50.780;6.084;2023-03-20T06:28:56;99858.75;;;7.24;100.00
9189;BME280;34313;50.780;6.084;2023-03-20T06:31:21;99860.56;;;7.45;100.00
9189;BME280;34313;50.780;6.084;2023-03-20T06:33:47;99865.31;;;7.57;100.00
9189;BME280;34313;50.780;6.084;2023-03-20T06:36:13;99851.88;;;7.65;100.00
9189;BME280;34313;50.780;6.084;2023-03-20T06:38:38;99852.47;;;7.72;100.00
9189;BME280;34313;50.780;6.084;2023-03-20T06:41:04;99853.16;;;7.77;99.85
9189;BME280;34313;50.780;6.084;2023-03-20T06:43:29;99860.63;;;7.86;98.73
9189;BME280;34313;50.780;6.084;2023-03-20T06:45:54;99854.59;;;7.84;98.15
9189;BME280;34313;50.780;6.084;2023-03-20T06:48:20;99862.41;;;7.86;97.10
9189;BME280;34313;50.780;6.084;2023-03-20T06:50:49;99873.16;;;7.80;96.93
9189;BME280;34313;50.780;6.084;2023-03-20T06:53:15;99876.56;;;7.82;97.05
9189;BME280;34313;50.780;6.084;2023-03-20T06:55:42;99887.25;;;7.77;97.06
9189;BME280;34313;50.780;6.084;2023-03-20T06:58:07;99885.81;;;7.70;97.45
9189;BME280;34313;50.780;6.084;2023-03-20T07:00:32;99895.56;;;7.66;97.93
9189;BME280;34313;50.780;6.084;2023-03-20T07:02:58;99896.59;;;7.62;97.78
9189;BME280;34313;50.780;6.084;2023-03-20T07:05:23;99898.72;;;7.74;97.18
9189;BME280;34313;50.780;6.084;2023-03-20T07:07:49;99898.53;;;7.79;97.20
9189;BME280;34313;50.780;6.084;2023-03-20T07:10:14;99900.00;;;7.86;96.74
9189;BME280;34313;50.780;6.084;2023-03-20T07:12:41;99901.34;;;7.97;96.63
9189;BME280;34313;50.780;6.084;2023-03-20T07:15:08;99889.94;;;8.18;94.62
9189;BME280;34313;50.780;6.084;2023-03-20T07:17:35;99902.47;;;8.32;93.35
9189;BME280;34313;50.780;6.084;2023-03-20T07:20:01;99903.00;;;8.40;92.47
9189;BME280;34313;50.780;6.084;2023-03-20T07:22:28;99903.88;;;8.61;91.80
9189;BME280;34313;50.780;6.084;2023-03-20T07:24:53;99907.00;;;8.69;90.56
9189;BME280;34313;50.780;6.084;2023-03-20T07:27:19;99919.34;;;8.88;89.77
9189;BME280;34313;50.780;6.084;2023-03-20T07:29:44;99916.00;;;8.84;88.82
9189;BME280;34313;50.780;6.084;2023-03-20T07:32:10;99927.25;;;8.88;88.52
9189;BME280;34313;50.780;6.084;2023-03-20T07:34:35;99930.75;;;9.07;88.69
9189;BME280;34313;50.780;6.084;2023-03-20T07:37:01;99926.84;;;9.16;87.89
9189;BME280;34313;50.780;6.084;2023-03-20T07:39:26;99933.13;;;9.33;87.54
9189;BME280;34313;50.780;6.084;2023-03-20T07:41:52;99932.63;;;9.43;86.65
9189;BME280;34313;50.780;6.084;2023-03-20T07:44:18;99921.47;;;9.38;85.00
9189;BME280;34313;50.780;6.084;2023-03-20T07:46:44;99920.44;;;9.41;85.04
9189;BME280;34313;50.780;6.084;2023-03-20T07:49:15;99929.13;;;9.43;85.37
9189;BME280;34313;50.780;6.084;2023-03-20T07:51:45;99914.84;;;9.30;85.18
9189;BME280;34313;50.780;6.084;2023-03-20T07:54:10;99932.13;;;9.35;85.52
9189;BME280;34313;50.780;6.084;2023-03-20T07:56:36;99918.97;;;9.35;85.83
9189;BME280;34313;50.780;6.084;2023-03-20T07:59:01;99934.03;;;9.32;85.54
9189;BME280;34313;50.780;6.084;2023-03-20T08:01:27;99931.91;;;9.40;84.65
9189;BME280;34313;50.780;6.084;2023-03-20T08:03:52;99926.16;;;9.51;84.60
9189;BME280;34313;50.780;6.084;2023-03-20T08:06:18;99933.97;;;9.52;83.81
9189;BME280;34313;50.780;6.084;2023-03-20T08:08:43;99931.66;;;9.63;83.54
9189;BME280;34313;50.780;6.084;2023-03-20T08:11:09;99943.53;;;9.72;83.98
9189;BME280;34313;50.780;6.084;2023-03-20T08:13:35;99953.72;;;9.97;81.60
9189;BME280;34313;50.780;6.084;2023-03-20T08:16:00;99951.47;;;9.90;80.49
9189;BME280;34313;50.780;6.084;2023-03-20T08:18:28;99937.50;;;10.43;78.39
9189;BME280;34313;50.780;6.084;2023-03-20T08:20:53;99934.97;;;10.75;76.85
9189;BME280;34313;50.780;6.084;2023-03-20T08:23:18;99928.59;;;10.79;75.26
9189;BME280;34313;50.780;6.084;2023-03-20T08:25:48;99937.84;;;11.04;74.22
9189;BME280;34313;50.780;6.084;2023-03-20T08:28:14;99930.50;;;11.26;71.91
9189;BME280;34313;50.780;6.084;2023-03-20T08:30:39;99940.31;;;11.40;70.86
9189;BME280;34313;50.780;6.084;2023-03-20T08:33:04;99924.03;;;11.32;68.91
9189;BME280;34313;50.780;6.084;2023-03-20T08:35:30;99936.44;;;11.30;66.98
9189;BME280;34313;50.780;6.084;2023-03-20T08:37:56;99926.78;;;10.97;67.64
9189;BME280;34313;50.780;6.084;2023-03-20T08:40:24;99941.53;;;11.01;68.06
9189;BME280;34313;50.780;6.084;2023-03-20T08:42:49;99945.47;;;11.10;67.74
9189;BME280;34313;50.780;6.084;2023-03-20T08:45:14;99953.78;;;10.85;67.74
9189;BME280;34313;50.780;6.084;2023-03-20T08:47:41;99951.56;;;10.77;66.89
9189;BME280;34313;50.780;6.084;2023-03-20T08:50:07;99953.16;;;10.79;67.21
9189;BME280;34313;50.780;6.084;2023-03-20T08:52:33;99963.41;;;10.86;66.95
9189;BME280;34313;50.780;6.084;2023-03-20T08:54:59;99948.59;;;10.83;66.87
9189;BME280;34313;50.780;6.084;2023-03-20T08:57:24;99950.16;;;10.87;66.26
9189;BME280;34313;50.780;6.084;2023-03-20T08:59:50;99954.31;;;10.91;66.23
9189;BME280;34313;50.780;6.084;2023-03-20T09:02:15;99962.56;;;10.85;66.69
9189;BME280;34313;50.780;6.084;2023-03-20T09:04:40;99936.44;;;10.81;66.01
9189;BME280;34313;50.780;6.084;2023-03-20T09:07:08;99967.69;;;10.53;66.32
9189;BME280;34313;50.780;6.084;2023-03-20T09:09:34;99970.09;;;10.58;66.45
9189;BME280;34313;50.780;6.084;2023-03-20T09:11:59;99964.00;;;10.57;66.39
9189;BME280;34313;50.780;6.084;2023-03-20T09:14:26;99956.84;;;10.59;66.59
9189;BME280;34313;50.780;6.084;2023-03-20T09:16:52;99967.25;;;10.63;66.20
9189;BME280;34313;50.780;6.084;2023-03-20T09:19:18;99970.31;;;10.71;66.23
9189;BME280;34313;50.780;6.084;2023-03-20T09:21:44;99969.19;;;10.76;66.33
9189;BME280;34313;50.780;6.084;2023-03-20T09:24:10;99966.22;;;10.65;67.86
9189;BME280;34313;50.780;6.084;2023-03-20T09:26:36;99983.19;;;10.77;69.59
9189;BME280;34313;50.780;6.084;2023-03-20T09:29:02;99964.19;;;10.88;69.32
9189;BME280;34313;50.780;6.084;2023-03-20T09:31:28;99968.66;;;11.03;68.36
9189;BME280;34313;50.780;6.084;2023-03-20T09:33:53;99965.59;;;10.77;68.40
9189;BME280;34313;50.780;6.084;2023-03-20T09:36:18;99969.34;;;11.07;67.84
9189;BME280;34313;50.780;6.084;2023-03-20T09:38:44;99959.00;;;11.20;66.27
9189;BME280;34313;50.780;6.084;2023-03-20T09:41:21;99970.78;;;11.46;65.76
9189;BME280;34313;50.780;6.084;2023-03-20T09:46:40;99969.00;;;11.62;64.62
9189;BME280;34313;50.780;6.084;2023-03-20T09:52:04;99963.91;;;11.43;63.71
9189;BME280;34313;50.780;6.084;2023-03-20T09:54:38;99976.16;;;11.60;63.03
9189;BME280;34313;50.780;6.084;2023-03-20T09:57:05;99962.78;;;11.63;62.77
9189;BME280;34313;50.780;6.084;2023-03-20T09:59:34;99968.16;;;11.78;63.07
9189;BME280;34313;50.780;6.084;2023-03-20T10:02:06;99964.50;;;11.64;63.77
9189;BME280;34313;50.780;6.084;2023-03-20T10:04:35;99963.31;;;11.70;62.29
9189;BME280;34313;50.780;6.084;2023-03-20T10:07:09;99967.47;;;11.74;62.09
9189;BME280;34313;50.780;6.084;2023-03-20T10:09:37;99973.50;;;11.76;61.63
9189;BME280;34313;50.780;6.084;2023-03-20T10:12:17;99961.66;;;11.51;61.62
9189;BME280;34313;50.780;6.084;2023-03-20T10:15:19;99955.28;;;11.40;61.70
9189;BME280;34313;50.780;6.084;2023-03-20T10:18:05;99950.44;;;10.98;62.24
9189;BME280;34313;50.780;6.084;2023-03-20T10:20:47;99944.75;;;10.73;62.36
9189;BME280;34313;50.780;6.084;2023-03-20T10:26:10;99968.94;;;10.64;63.62
9189;BME280;34313;50.780;6.084;2023-03-20T10:28:50;99948.09;;;10.42;63.52
9189;BME280;34313;50.780;6.084;2023-03-20T10:31:42;99952.56;;;10.39;63.88
9189;BME280;34313;50.780;6.084;2023-03-20T10:37:00;99970.44;;;10.52;63.99
9189;BME280;34313;50.780;6.084;2023-03-20T10:40:13;99932.31;;;10.22;64.58
9189;BME280;34313;50.780;6.084;2023-03-20T10:43:00;99972.25;;;10.32;64.92
9189;BME280;34313;50.780;6.084;2023-03-20T10:45:52;99974.06;;;10.13;65.68
9189;BME280;34313;50.780;6.084;2023-03-20T10:49:04;99944.22;;;9.95;65.67
9189;BME280;34313;50.780;6.084;2023-03-20T10:52:00;99983.16;;;9.88;66.68
9189;BME280;34313;50.780;6.084;2023-03-20T10:54:45;99949.81;;;9.70;67.76
9189;BME280;34313;50.780;6.084;2023-03-20T10:57:30;99971.56;;;9.92;68.17
9189;BME280;34313;50.780;6.084;2023-03-20T11:00:11;99976.31;;;10.03;69.07
9189;BME280;34313;50.780;6.084;2023-03-20T11:02:52;99977.13;;;10.22;68.75
9189;BME280;34313;50.780;6.084;2023-03-20T11:05:42;99946.94;;;10.11;69.59
9189;BME280;34313;50.780;6.084;2023-03-20T11:08:24;99966.28;;;10.46;68.75
9189;BME280;34313;50.780;6.084;2023-03-20T11:11:13;99936.50;;;10.27;70.27
9189;BME280;34313;50.780;6.084;2023-03-20T11:13:47;99955.38;;;10.54;69.64
9189;BME280;34313;50.780;6.084;2023-03-20T11:16:28;99945.53;;;10.57;70.24
9189;BME280;34313;50.780;6.084;2023-03-20T11:19:09;99955.44;;;10.70;71.12
9189;BME280;34313;50.780;6.084;2023-03-20T11:24:40;99951.00;;;10.88;70.16
9189;BME280;34313;50.780;6.084;2023-03-20T11:27:27;99907.84;;;10.73;70.08
9189;BME280;34313;50.780;6.084;2023-03-20T11:30:06;99903.91;;;10.97;69.95
9189;BME280;34313;50.780;6.084;2023-03-20T11:32:50;99924.34;;;11.10;69.18
9189;BME280;34313;50.780;6.084;2023-03-20T11:38:16;99900.34;;;11.14;68.30
9189;BME280;34313;50.780;6.084;2023-03-20T11:40:50;99916.19;;;11.30;68.23
9189;BME280;34313;50.780;6.084;2023-03-20T11:43:31;99917.63;;;11.20;68.96
9189;BME280;34313;50.780;6.084;2023-03-20T11:46:09;99924.03;;;11.32;69.17
9189;BME280;34313;50.780;6.084;2023-03-20T11:48:40;99891.22;;;11.20;69.34
9189;BME280;34313;50.780;6.084;2023-03-20T11:51:30;99882.75;;;11.15;68.75
9189;BME280;34313;50.780;6.084;2023-03-20T11:57:25;99900.34;;;11.62;68.56
9189;BME280;34313;50.780;6.084;2023-03-20T12:02:41;99888.00;;;12.25;66.19
9189;BME280;34313;50.780;6.084;2023-03-20T12:05:42;99880.13;;;12.09;66.35
9189;BME280;34313;50.780;6.084;2023-03-20T12:08:23;99857.16;;;12.25;66.16
9189;BME280;34313;50.780;6.084;2023-03-20T12:14:29;99875.78;;;13.10;63.43
9189;BME280;34313;50.780;6.084;2023-03-20T12:23:24;99872.78;;;13.85;58.75
9189;BME280;34313;50.780;6.084;2023-03-20T12:27:16;99860.28;;;14.00;57.46
9189;BME280;34313;50.780;6.084;2023-03-20T12:29:29;99837.63;;;13.69;57.56
9189;BME280;34313;50.780;6.084;2023-03-20T12:34:51;99822.88;;;12.96;58.93
9189;BME280;34313;50.780;6.084;2023-03-20T12:37:39;99823.63;;;12.98;59.03
9189;BME280;34313;50.780;6.084;2023-03-20T12:55:13;99803.81;;;13.99;55.81
9189;BME280;34313;50.780;6.084;2023-03-20T12:58:00;99796.44;;;13.77;55.17
9189;BME280;34313;50.780;6.084;2023-03-20T13:03:28;99808.28;;;14.37;53.84
9189;BME280;34313;50.780;6.084;2023-03-20T13:06:03;99818.03;;;14.37;53.50
9189;BME280;34313;50.780;6.084;2023-03-20T13:13:45;99816.56;;;14.33;53.20
9189;BME280;34313;50.780;6.084;2023-03-20T13:19:23;99826.66;;;13.88;54.09
9189;BME280;34313;50.780;6.084;2023-03-20T13:21:59;99825.44;;;13.66;54.78
9189;BME280;34313;50.780;6.084;2023-03-20T13:24:35;99828.72;;;13.57;54.38
9189;BME280;34313;50.780;6.084;2023-03-20T13:30:14;99817.69;;;13.63;54.61
9189;BME280;34313;50.780;6.084;2023-03-20T13:35:27;99823.25;;;13.46;55.35
9189;BME280;34313;50.780;6.084;2023-03-20T13:38:00;99812.06;;;13.55;55.32
9189;BME280;34313;50.780;6.084;2023-03-20T13:40:33;99808.31;;;13.72;54.72
9189;BME280;34313;50.780;6.084;2023-03-20T13:44:03;99820.47;;;13.74;54.18
9189;BME280;34313;50.780;6.084;2023-03-20T13:46:25;99801.72;;;13.65;53.96
9189;BME280;34313;50.780;6.084;2023-03-20T13:48:54;99805.56;;;13.46;54.59
9189;BME280;34313;50.780;6.084;2023-03-20T13:51:45;99813.63;;;13.30;54.88
9189;BME280;34313;50.780;6.084;2023-03-20T13:58:02;99783.56;;;12.90;56.18
9189;BME280;34313;50.780;6.084;2023-03-20T14:00:57;99796.88;;;13.02;55.71
9189;BME280;34313;50.780;6.084;2023-03-20T14:03:36;99794.44;;;12.99;55.98
9189;BME280;34313;50.780;6.084;2023-03-20T14:07:00;99804.00;;;12.73;56.63
9189;BME280;34313;50.780;6.084;2023-03-20T14:09:00;99793.00;;;12.94;56.54
9189;BME280;34313;50.780;6.084;2023-03-20T14:11:29;99806.53;;;12.89;57.02
9189;BME280;34313;50.780;6.084;2023-03-20T14:14:05;99801.31;;;13.02;56.03
9189;BME280;34313;50.780;6.084;2023-03-20T14:16:32;99803.81;;;12.76;56.28
9189;BME280;34313;50.780;6.084;2023-03-20T14:19:16;99806.94;;;12.68;56.68
9189;BME280;34313;50.780;6.084;2023-03-20T14:21:49;99793.53;;;12.57;57.26
9189;BME280;34313;50.780;6.084;2023-03-20T14:24:17;99787.22;;;12.45;57.86
9189;BME280;34313;50.780;6.084;2023-03-20T14:26:49;99784.94;;;12.54;57.72
9189;BME280;34313;50.780;6.084;2023-03-20T14:31:41;99779.09;;;12.34;58.00
9189;BME280;34313;50.780;6.084;2023-03-20T14:39:24;99776.34;;;12.36;57.76
9189;BME280;34313;50.780;6.084;2023-03-20T14:42:24;99763.91;;;12.38;57.47
9189;BME280;34313;50.780;6.084;2023-03-20T14:50:38;99770.84;;;12.53;56.80
9189;BME280;34313;50.780;6.084;2023-03-20T14:53:15;99770.13;;;12.37;56.77
9189;BME280;34313;50.780;6.084;2023-03-20T15:01:33;99763.03;;;12.08;58.02
9189;BME280;34313;50.780;6.084;2023-03-20T15:04:24;99764.25;;;12.03;58.11
9189;BME280;34313;50.780;6.084;2023-03-20T15:06:58;99755.09;;;12.08;58.29
9189;BME280;34313;50.780;6.084;2023-03-20T15:09:26;99753.03;;;12.14;58.13
9189;BME280;34313;50.780;6.084;2023-03-20T15:11:55;99744.63;;;12.07;57.38
9189;BME280;34313;50.780;6.084;2023-03-20T15:14:30;99756.91;;;12.22;57.61
9189;BME280;34313;50.780;6.084;2023-03-20T15:16:59;99763.50;;;12.29;57.67
9189;BME280;34313;50.780;6.084;2023-03-20T15:19:25;99750.03;;;12.34;57.20
9189;BME280;34313;50.780;6.084;2023-03-20T15:21:53;99761.91;;;12.56;57.26
9189;BME280;34313;50.780;6.084;2023-03-20T15:24:23;99750.16;;;12.74;56.57
9189;BME280;34313;50.780;6.084;2023-03-20T15:27:10;99755.34;;;12.76;56.13
9189;BME280;34313;50.780;6.084;2023-03-20T15:29:36;99742.81;;;12.65;56.47
9189;BME280;34313;50.780;6.084;2023-03-20T15:32:02;99735.25;;;12.44;56.75
9189;BME280;34313;50.780;6.084;2023-03-20T15:34:31;99748.88;;;12.24;57.54
9189;BME280;34313;50.780;6.084;2023-03-20T15:36:58;99745.59;;;12.20;57.88